sensor_id;sensor_type;location;lat;lon;timestamp;temperature;humidity
58983;DHT22;44771;49.982;8.560;2023-05-16T00:01:06;11.40;99.90
58983;DHT22;44771;49.982;8.560;2023-05-16T00:06:08;11.50;99.90
58983;DHT22;44771;49.982;8.560;2023-05-16T00:11:09;11.40;99.90
58983;DHT22;44771;49.982;8.560;2023-05-16T00:16:12;11.30;99.90
58983;DHT22;44771;49.982;8.560;2023-05-16T00:21:16;11.30;99.90
58983;DHT22;44771;49.982;8.560;2023-05-16T00:26:18;11.20;99.90
58983;DHT22;44771;49.982;8.560;2023-05-16T00:31:21;11.30;99.90
58983;DHT22;44771;49.982;8.560;2023-05-16T00:36:23;11.20;99.90
58983;DHT22;44771;49.982;8.560;2023-05-16T00:41:25;11.10;99.90
58983;DHT22;44771;49.982;8.560;2023-05-16T00:46:28;11.10;99.90
58983;DHT22;44771;49.982;8.560;2023-05-16T00:51:30;11.00;99.90
58983;DHT22;44771;49.982;8.560;2023-05-16T00:56:32;11.00;99.90
58983;DHT22;44771;49.982;8.560;2023-05-16T01:01:36;10.80;99.90
58983;DHT22;44771;49.982;8.560;2023-05-16T01:06:38;10.80;99.90
58983;DHT22;44771;49.982;8.560;2023-05-16T01:11:47;10.80;99.90
58983;DHT22;44771;49.982;8.560;2023-05-16T01:16:56;10.90;99.90
58983;DHT22;44771;49.982;8.560;2023-05-16T01:22:05;11.00;99.90
58983;DHT22;44771;49.982;8.560;2023-05-16T01:27:10;11.00;99.90
58983;DHT22;44771;49.982;8.560;2023-05-16T01:32:12;11.10;99.90
58983;DHT22;44771;49.982;8.560;2023-05-16T01:37:18;11.00;99.90
58983;DHT22;44771;49.982;8.560;2023-05-16T01:42:27;11.00;99.90
58983;DHT22;44771;49.982;8.560;2023-05-16T01:47:30;11.00;99.90
58983;DHT22;44771;49.982;8.560;2023-05-16T01:52:37;10.90;99.90
58983;DHT22;44771;49.982;8.560;2023-05-16T01:57:44;10.90;99.90
58983;DHT22;44771;49.982;8.560;2023-05-16T02:02:46;10.90;99.90
58983;DHT22;44771;49.982;8.560;2023-05-16T02:07:48;10.90;99.90
58983;DHT22;44771;49.982;8.560;2023-05-16T02:12:51;10.80;99.90
58983;DHT22;44771;49.982;8.560;2023-05-16T02:17:53;10.70;99.90
58983;DHT22;44771;49.982;8.560;2023-05-16T02:22:55;10.60;99.90
58983;DHT22;44771;49.982;8.560;2023-05-16T02:27:58;10.50;99.90
58983;DHT22;44771;49.982;8.560;2023-05-16T02:33:00;10.40;99.90
58983;DHT22;44771;49.982;8.560;2023-05-16T02:38:02;10.30;99.90
58983;DHT22;44771;49.982;8.560;2023-05-16T02:43:05;10.30;99.90
58983;DHT22;44771;49.982;8.560;2023-05-16T02:48:07;10.30;99.90
58983;DHT22;44771;49.982;8.560;2023-05-16T02:53:08;10.10;99.90
58983;DHT22;44771;49.982;8.560;2023-05-16T02:58:11;10.00;99.90
58983;DHT22;44771;49.982;8.560;2023-05-16T03:03:13;9.90;99.90
58983;DHT22;44771;49.982;8.560;2023-05-16T03:08:15;9.90;99.90
58983;DHT22;44771;49.982;8.560;2023-05-16T03:13:18;9.80;99.90
58983;DHT22;44771;49.982;8.560;2023-05-16T03:18:20;9.80;99.90
58983;DHT22;44771;49.982;8.560;2023-05-16T03:23:22;9.80;99.90
58983;DHT22;44771;49.982;8.560;2023-05-16T03:28:26;9.80;99.90
58983;DHT22;44771;49.982;8.560;2023-05-16T03:33:27;9.90;99.90
58983;DHT22;44771;49.982;8.560;2023-05-16T03:38:29;10.10;99.90
58983;DHT22;44771;49.982;8.560;2023-05-16T03:43:32;10.20;99.90
58983;DHT22;44771;49.982;8.560;2023-05-16T03:48:34;10.20;99.90
58983;DHT22;44771;49.982;8.560;2023-05-16T03:53:36;10.20;99.90
58983;DHT22;44771;49.982;8.560;2023-05-16T03:58:39;10.30;99.90
58983;DHT22;44771;49.982;8.560;2023-05-16T04:03:41;10.40;99.90
58983;DHT22;44771;49.982;8.560;2023-05-16T04:08:42;10.40;99.90
58983;DHT22;44771;49.982;8.560;2023-05-16T04:13:46;10.50;99.90
58983;DHT22;44771;49.982;8.560;2023-05-16T04:18:48;10.50;99.90
58983;DHT22;44771;49.982;8.560;2023-05-16T04:23:49;10.60;99.90
58983;DHT22;44771;49.982;8.560;2023-05-16T04:28:53;10.70;99.90
58983;DHT22;44771;49.982;8.560;2023-05-16T04:33:56;10.70;99.90
58983;DHT22;44771;49.982;8.560;2023-05-16T04:38:58;10.80;99.90
58983;DHT22;44771;49.982;8.560;2023-05-16T04:44:01;10.90;99.90
58983;DHT22;44771;49.982;8.560;2023-05-16T04:49:03;11.00;99.90
58983;DHT22;44771;49.982;8.560;2023-05-16T04:54:05;11.10;99.90
58983;DHT22;44771;49.982;8.560;2023-05-16T04:59:08;11.20;99.90
58983;DHT22;44771;49.982;8.560;2023-05-16T05:04:10;11.30;99.90
58983;DHT22;44771;49.982;8.560;2023-05-16T05:09:11;11.40;99.90
58983;DHT22;44771;49.982;8.560;2023-05-16T05:14:14;11.50;99.90
58983;DHT22;44771;49.982;8.560;2023-05-16T05:19:16;11.50;99.90
58983;DHT22;44771;49.982;8.560;2023-05-16T05:24:18;11.50;99.90
58983;DHT22;44771;49.982;8.560;2023-05-16T05:29:21;11.60;99.90
58983;DHT22;44771;49.982;8.560;2023-05-16T05:34:23;11.60;99.90
58983;DHT22;44771;49.982;8.560;2023-05-16T05:39:25;11.70;99.90
58983;DHT22;44771;49.982;8.560;2023-05-16T05:44:28;11.90;99.90
58983;DHT22;44771;49.982;8.560;2023-05-16T05:49:30;11.80;99.90
58983;DHT22;44771;49.982;8.560;2023-05-16T05:54:32;11.70;99.90
58983;DHT22;44771;49.982;8.560;2023-05-16T05:59:35;11.70;99.90
58983;DHT22;44771;49.982;8.560;2023-05-16T06:04:37;11.60;99.90
58983;DHT22;44771;49.982;8.560;2023-05-16T06:09:39;11.70;99.90
58983;DHT22;44771;49.982;8.560;2023-05-16T06:14:42;11.70;99.90
58983;DHT22;44771;49.982;8.560;2023-05-16T06:19:47;11.60;99.90
58983;DHT22;44771;49.982;8.560;2023-05-16T06:24:48;11.70;99.90
58983;DHT22;44771;49.982;8.560;2023-05-16T06:29:51;11.80;99.90
58983;DHT22;44771;49.982;8.560;2023-05-16T06:34:53;11.80;99.90
58983;DHT22;44771;49.982;8.560;2023-05-16T06:39:55;11.70;99.90
58983;DHT22;44771;49.982;8.560;2023-05-16T06:44:58;11.60;99.90
58983;DHT22;44771;49.982;8.560;2023-05-16T06:50:00;11.60;99.90
58983;DHT22;44771;49.982;8.560;2023-05-16T06:55:02;11.50;99.90
58983;DHT22;44771;49.982;8.560;2023-05-16T07:00:06;11.50;99.90
58983;DHT22;44771;49.982;8.560;2023-05-16T07:05:08;11.50;99.90
58983;DHT22;44771;49.982;8.560;2023-05-16T07:10:10;11.40;99.90
58983;DHT22;44771;49.982;8.560;2023-05-16T07:15:14;11.40;99.90
58983;DHT22;44771;49.982;8.560;2023-05-16T07:20:16;11.30;99.90
58983;DHT22;44771;49.982;8.560;2023-05-16T07:25:18;11.40;99.90
58983;DHT22;44771;49.982;8.560;2023-05-16T07:30:21;11.30;99.90
58983;DHT22;44771;49.982;8.560;2023-05-16T07:35:22;11.20;99.90
58983;DHT22;44771;49.982;8.560;2023-05-16T07:40:24;11.20;99.90
58983;DHT22;44771;49.982;8.560;2023-05-16T07:45:27;11.30;99.90
58983;DHT22;44771;49.982;8.560;2023-05-16T07:50:30;11.20;99.90
58983;DHT22;44771;49.982;8.560;2023-05-16T07:55:31;11.30;99.90
58983;DHT22;44771;49.982;8.560;2023-05-16T08:00:35;11.20;99.90
58983;DHT22;44771;49.982;8.560;2023-05-16T08:05:37;11.30;99.90
58983;DHT22;44771;49.982;8.560;2023-05-16T08:10:38;11.30;99.90
58983;DHT22;44771;49.982;8.560;2023-05-16T08:15:42;11.10;99.90
58983;DHT22;44771;49.982;8.560;2023-05-16T08:20:43;11.00;99.90
58983;DHT22;44771;49.982;8.560;2023-05-16T08:25:45;10.70;99.90
58983;DHT22;44771;49.982;8.560;2023-05-16T08:30:51;10.50;99.90
58983;DHT22;44771;49.982;8.560;2023-05-16T08:35:53;10.30;99.90
58983;DHT22;44771;49.982;8.560;2023-05-16T08:40:58;10.30;99.90
58983;DHT22;44771;49.982;8.560;2023-05-16T08:46:02;10.30;99.90
58983;DHT22;44771;49.982;8.560;2023-05-16T08:51:05;10.50;99.90
58983;DHT22;44771;49.982;8.560;2023-05-16T08:56:10;10.40;99.90
58983;DHT22;44771;49.982;8.560;2023-05-16T09:01:14;10.50;99.90
58983;DHT22;44771;49.982;8.560;2023-05-16T09:06:17;10.50;99.90
58983;DHT22;44771;49.982;8.560;2023-05-16T09:17:08;10.60;99.90
58983;DHT22;44771;49.982;8.560;2023-05-16T09:22:14;10.80;99.90
58983;DHT22;44771;49.982;8.560;2023-05-16T09:27:16;10.80;99.90
58983;DHT22;44771;49.982;8.560;2023-05-16T09:32:23;11.10;99.90
58983;DHT22;44771;49.982;8.560;2023-05-16T09:37:25;11.30;99.90
58983;DHT22;44771;49.982;8.560;2023-05-16T09:42:26;11.70;99.90
58983;DHT22;44771;49.982;8.560;2023-05-16T09:47:31;12.10;99.90
58983;DHT22;44771;49.982;8.560;2023-05-16T09:52:33;12.40;99.90
58983;DHT22;44771;49.982;8.560;2023-05-16T09:57:36;12.20;99.90
58983;DHT22;44771;49.982;8.560;2023-05-16T10:02:42;12.20;99.90
58983;DHT22;44771;49.982;8.560;2023-05-16T10:07:47;12.10;99.90
58983;DHT22;44771;49.982;8.560;2023-05-16T10:12:50;12.40;99.90
58983;DHT22;44771;49.982;8.560;2023-05-16T10:17:55;12.10;99.90
58983;DHT22;44771;49.982;8.560;2023-05-16T10:22:58;12.20;99.90
58983;DHT22;44771;49.982;8.560;2023-05-16T10:28:01;12.20;99.90
58983;DHT22;44771;49.982;8.560;2023-05-16T10:33:05;12.10;99.90
58983;DHT22;44771;49.982;8.560;2023-05-16T10:38:08;12.00;99.90
58983;DHT22;44771;49.982;8.560;2023-05-16T10:43:21;12.00;99.90
58983;DHT22;44771;49.982;8.560;2023-05-16T10:48:32;12.40;99.90
58983;DHT22;44771;49.982;8.560;2023-05-16T10:53:34;13.00;99.90
58983;DHT22;44771;49.982;8.560;2023-05-16T10:58:46;13.30;99.90
58983;DHT22;44771;49.982;8.560;2023-05-16T11:04:16;13.10;99.90
58983;DHT22;44771;49.982;8.560;2023-05-16T11:09:21;13.10;99.90
58983;DHT22;44771;49.982;8.560;2023-05-16T11:14:24;13.20;99.90
58983;DHT22;44771;49.982;8.560;2023-05-16T11:19:32;13.50;99.90
58983;DHT22;44771;49.982;8.560;2023-05-16T11:24:35;13.70;96.90
58983;DHT22;44771;49.982;8.560;2023-05-16T11:29:38;13.70;97.60
58983;DHT22;44771;49.982;8.560;2023-05-16T11:34:42;13.70;95.20
58983;DHT22;44771;49.982;8.560;2023-05-16T11:39:44;13.70;94.70
58983;DHT22;44771;49.982;8.560;2023-05-16T11:44:47;13.80;94.30
58983;DHT22;44771;49.982;8.560;2023-05-16T11:49:56;13.60;94.50
58983;DHT22;44771;49.982;8.560;2023-05-16T11:54:58;13.20;95.10
58983;DHT22;44771;49.982;8.560;2023-05-16T12:00:02;13.20;95.60
58983;DHT22;44771;49.982;8.560;2023-05-16T12:05:09;13.10;95.80
58983;DHT22;44771;49.982;8.560;2023-05-16T12:10:13;13.30;95.20
58983;DHT22;44771;49.982;8.560;2023-05-16T12:15:15;13.50;94.10
58983;DHT22;44771;49.982;8.560;2023-05-16T12:20:18;13.80;94.20
58983;DHT22;44771;49.982;8.560;2023-05-16T12:25:21;14.10;94.60
58983;DHT22;44771;49.982;8.560;2023-05-16T12:30:24;14.20;92.80
58983;DHT22;44771;49.982;8.560;2023-05-16T12:35:31;14.80;94.10
58983;DHT22;44771;49.982;8.560;2023-05-16T12:40:35;15.00;91.70
58983;DHT22;44771;49.982;8.560;2023-05-16T12:45:37;14.40;87.80
58983;DHT22;44771;49.982;8.560;2023-05-16T12:50:41;15.00;87.20
58983;DHT22;44771;49.982;8.560;2023-05-16T12:55:43;15.10;80.90
58983;DHT22;44771;49.982;8.560;2023-05-16T13:00:45;15.30;75.90
58983;DHT22;44771;49.982;8.560;2023-05-16T13:05:48;15.70;76.60
58983;DHT22;44771;49.982;8.560;2023-05-16T13:10:50;16.60;74.80
58983;DHT22;44771;49.982;8.560;2023-05-16T13:15:52;16.50;75.40
58983;DHT22;44771;49.982;8.560;2023-05-16T13:20:56;16.60;72.70
58983;DHT22;44771;49.982;8.560;2023-05-16T13:25:57;16.10;69.30
58983;DHT22;44771;49.982;8.560;2023-05-16T13:30:59;15.10;74.20
58983;DHT22;44771;49.982;8.560;2023-05-16T13:36:03;16.10;72.70
58983;DHT22;44771;49.982;8.560;2023-05-16T13:41:05;15.60;70.00
58983;DHT22;44771;49.982;8.560;2023-05-16T13:46:07;16.20;63.60
58983;DHT22;44771;49.982;8.560;2023-05-16T13:51:11;16.80;69.20
58983;DHT22;44771;49.982;8.560;2023-05-16T13:56:13;17.00;62.80
58983;DHT22;44771;49.982;8.560;2023-05-16T14:01:15;17.60;60.60
58983;DHT22;44771;49.982;8.560;2023-05-16T14:06:18;17.60;62.00
58983;DHT22;44771;49.982;8.560;2023-05-16T14:11:19;18.10;62.60
58983;DHT22;44771;49.982;8.560;2023-05-16T14:16:21;17.70;61.40
58983;DHT22;44771;49.982;8.560;2023-05-16T14:21:25;18.10;61.20
58983;DHT22;44771;49.982;8.560;2023-05-16T14:26:26;18.30;57.70
58983;DHT22;44771;49.982;8.560;2023-05-16T14:31:28;18.00;56.10
58983;DHT22;44771;49.982;8.560;2023-05-16T14:36:33;17.50;58.50
58983;DHT22;44771;49.982;8.560;2023-05-16T14:41:43;16.30;59.90
58983;DHT22;44771;49.982;8.560;2023-05-16T14:46:48;16.00;60.70
58983;DHT22;44771;49.982;8.560;2023-05-16T14:51:52;16.80;63.20
58983;DHT22;44771;49.982;8.560;2023-05-16T14:56:53;17.20;58.20
58983;DHT22;44771;49.982;8.560;2023-05-16T15:01:55;17.30;56.80
58983;DHT22;44771;49.982;8.560;2023-05-16T15:06:58;17.40;59.10
58983;DHT22;44771;49.982;8.560;2023-05-16T15:12:00;16.30;59.40
58983;DHT22;44771;49.982;8.560;2023-05-16T15:17:03;15.80;59.20
58983;DHT22;44771;49.982;8.560;2023-05-16T15:22:10;16.00;62.40
58983;DHT22;44771;49.982;8.560;2023-05-16T15:27:11;16.10;59.60
58983;DHT22;44771;49.982;8.560;2023-05-16T15:32:13;15.30;61.00
58983;DHT22;44771;49.982;8.560;2023-05-16T15:37:17;14.90;64.30
58983;DHT22;44771;49.982;8.560;2023-05-16T15:42:19;14.70;64.60
58983;DHT22;44771;49.982;8.560;2023-05-16T15:47:21;14.70;66.90
58983;DHT22;44771;49.982;8.560;2023-05-16T15:52:24;15.60;62.40
58983;DHT22;44771;49.982;8.560;2023-05-16T15:57:26;16.30;60.10
58983;DHT22;44771;49.982;8.560;2023-05-16T16:02:27;16.30;56.60
58983;DHT22;44771;49.982;8.560;2023-05-16T16:07:31;16.20;58.20
58983;DHT22;44771;49.982;8.560;2023-05-16T16:12:36;16.10;57.30
58983;DHT22;44771;49.982;8.560;2023-05-16T16:17:38;15.90;60.20
58983;DHT22;44771;49.982;8.560;2023-05-16T16:22:41;15.30;61.00
58983;DHT22;44771;49.982;8.560;2023-05-16T16:27:43;14.80;61.80
58983;DHT22;44771;49.982;8.560;2023-05-16T16:32:45;14.40;60.60
58983;DHT22;44771;49.982;8.560;2023-05-16T16:37:48;14.50;63.00
58983;DHT22;44771;49.982;8.560;2023-05-16T16:43:07;14.40;60.80
58983;DHT22;44771;49.982;8.560;2023-05-16T16:48:09;14.30;61.60
58983;DHT22;44771;49.982;8.560;2023-05-16T16:53:12;14.30;62.70
58983;DHT22;44771;49.982;8.560;2023-05-16T16:58:14;14.20;63.40
58983;DHT22;44771;49.982;8.560;2023-05-16T17:03:16;14.10;64.30
58983;DHT22;44771;49.982;8.560;2023-05-16T17:08:22;13.80;64.20
58983;DHT22;44771;49.982;8.560;2023-05-16T17:13:24;13.60;63.90
58983;DHT22;44771;49.982;8.560;2023-05-16T17:18:26;13.50;68.50
58983;DHT22;44771;49.982;8.560;2023-05-16T17:23:32;13.40;65.70
58983;DHT22;44771;49.982;8.560;2023-05-16T17:28:34;13.20;64.70
58983;DHT22;44771;49.982;8.560;2023-05-16T17:33:36;13.00;66.20
58983;DHT22;44771;49.982;8.560;2023-05-16T17:38:40;12.90;67.00
58983;DHT22;44771;49.982;8.560;2023-05-16T17:43:42;12.90;68.10
58983;DHT22;44771;49.982;8.560;2023-05-16T17:48:46;13.10;66.90
58983;DHT22;44771;49.982;8.560;2023-05-16T17:53:49;13.50;66.50
58983;DHT22;44771;49.982;8.560;2023-05-16T17:58:53;13.50;66.70
58983;DHT22;44771;49.982;8.560;2023-05-16T18:03:55;13.60;66.40
58983;DHT22;44771;49.982;8.560;2023-05-16T18:08:58;13.70;67.00
58983;DHT22;44771;49.982;8.560;2023-05-16T18:14:00;13.80;66.10
58983;DHT22;44771;49.982;8.560;2023-05-16T18:19:02;13.60;66.60
58983;DHT22;44771;49.982;8.560;2023-05-16T18:24:07;13.40;65.60
58983;DHT22;44771;49.982;8.560;2023-05-16T18:29:09;13.10;68.30
58983;DHT22;44771;49.982;8.560;2023-05-16T18:34:11;12.90;68.80
58983;DHT22;44771;49.982;8.560;2023-05-16T18:39:14;12.80;68.40
58983;DHT22;44771;49.982;8.560;2023-05-16T18:44:16;12.50;69.90
58983;DHT22;44771;49.982;8.560;2023-05-16T18:49:18;12.20;71.60
58983;DHT22;44771;49.982;8.560;2023-05-16T18:54:23;12.00;72.30
58983;DHT22;44771;49.982;8.560;2023-05-16T18:59:25;11.80;70.70
58983;DHT22;44771;49.982;8.560;2023-05-16T19:04:33;11.90;69.60
58983;DHT22;44771;49.982;8.560;2023-05-16T19:09:36;11.80;70.50
58983;DHT22;44771;49.982;8.560;2023-05-16T19:14:38;11.60;70.90
58983;DHT22;44771;49.982;8.560;2023-05-16T19:19:43;11.30;72.50
58983;DHT22;44771;49.982;8.560;2023-05-16T19:24:53;11.10;74.40
58983;DHT22;44771;49.982;8.560;2023-05-16T19:36:06;10.80;75.90
58983;DHT22;44771;49.982;8.560;2023-05-16T19:41:13;10.60;78.40
58983;DHT22;44771;49.982;8.560;2023-05-16T19:46:15;10.50;79.40
58983;DHT22;44771;49.982;8.560;2023-05-16T19:51:17;10.20;81.00
58983;DHT22;44771;49.982;8.560;2023-05-16T19:56:39;10.00;86.60
58983;DHT22;44771;49.982;8.560;2023-05-16T20:01:41;9.70;89.00
58983;DHT22;44771;49.982;8.560;2023-05-16T20:06:43;9.50;89.20
58983;DHT22;44771;49.982;8.560;2023-05-16T20:11:46;9.40;90.40
58983;DHT22;44771;49.982;8.560;2023-05-16T20:16:48;9.30;90.50
58983;DHT22;44771;49.982;8.560;2023-05-16T20:21:50;9.30;91.40
58983;DHT22;44771;49.982;8.560;2023-05-16T20:26:53;9.30;92.10
58983;DHT22;44771;49.982;8.560;2023-05-16T20:31:55;9.20;94.00
58983;DHT22;44771;49.982;8.560;2023-05-16T20:36:57;9.10;94.90
58983;DHT22;44771;49.982;8.560;2023-05-16T20:42:00;8.90;95.80
58983;DHT22;44771;49.982;8.560;2023-05-16T20:47:02;8.80;96.10
58983;DHT22;44771;49.982;8.560;2023-05-16T20:52:07;8.90;96.80
58983;DHT22;44771;49.982;8.560;2023-05-16T20:57:11;8.80;96.30
58983;DHT22;44771;49.982;8.560;2023-05-16T21:02:13;8.70;98.10
58983;DHT22;44771;49.982;8.560;2023-05-16T21:07:14;8.60;99.00
58983;DHT22;44771;49.982;8.560;2023-05-16T21:12:17;8.60;99.40
58983;DHT22;44771;49.982;8.560;2023-05-16T21:17:19;8.50;99.90
58983;DHT22;44771;49.982;8.560;2023-05-16T21:22:21;8.60;99.60
58983;DHT22;44771;49.982;8.560;2023-05-16T21:27:25;8.40;99.90
58983;DHT22;44771;49.982;8.560;2023-05-16T21:32:27;8.30;99.90
58983;DHT22;44771;49.982;8.560;2023-05-16T21:37:29;8.10;99.90
58983;DHT22;44771;49.982;8.560;2023-05-16T21:42:32;8.10;99.90
58983;DHT22;44771;49.982;8.560;2023-05-16T21:47:33;7.90;99.90
58983;DHT22;44771;49.982;8.560;2023-05-16T21:52:35;7.70;99.90
58983;DHT22;44771;49.982;8.560;2023-05-16T21:57:39;7.50;99.90
58983;DHT22;44771;49.982;8.560;2023-05-16T22:02:40;7.30;99.90
58983;DHT22;44771;49.982;8.560;2023-05-16T22:07:42;7.30;99.90
58983;DHT22;44771;49.982;8.560;2023-05-16T22:12:46;7.30;99.90
58983;DHT22;44771;49.982;8.560;2023-05-16T22:17:47;7.30;99.90
58983;DHT22;44771;49.982;8.560;2023-05-16T22:22:49;7.30;99.90
58983;DHT22;44771;49.982;8.560;2023-05-16T22:27:53;7.20;99.90
58983;DHT22;44771;49.982;8.560;2023-05-16T22:32:54;7.20;99.90
58983;DHT22;44771;49.982;8.560;2023-05-16T22:37:56;7.10;99.90
58983;DHT22;44771;49.982;8.560;2023-05-16T22:42:59;7.10;99.90
58983;DHT22;44771;49.982;8.560;2023-05-16T22:48:01;7.10;99.90
58983;DHT22;44771;49.982;8.560;2023-05-16T22:53:03;7.10;99.90
58983;DHT22;44771;49.982;8.560;2023-05-16T22:58:06;7.00;99.90
58983;DHT22;44771;49.982;8.560;2023-05-16T23:03:08;7.10;99.90
58983;DHT22;44771;49.982;8.560;2023-05-16T23:08:10;7.20;99.90
58983;DHT22;44771;49.982;8.560;2023-05-16T23:13:13;7.20;99.90
58983;DHT22;44771;49.982;8.560;2023-05-16T23:18:15;7.20;99.90
58983;DHT22;44771;49.982;8.560;2023-05-16T23:23:17;7.30;99.90
58983;DHT22;44771;49.982;8.560;2023-05-16T23:28:20;7.30;99.90
58983;DHT22;44771;49.982;8.560;2023-05-16T23:33:22;7.10;99.90
58983;DHT22;44771;49.982;8.560;2023-05-16T23:38:23;6.90;99.90
58983;DHT22;44771;49.982;8.560;2023-05-16T23:43:27;6.80;99.90
58983;DHT22;44771;49.982;8.560;2023-05-16T23:48:28;6.90;99.90
58983;DHT22;44771;49.982;8.560;2023-05-16T23:53:33;6.90;99.90
58983;DHT22;44771;49.982;8.560;2023-05-16T23:58:37;6.80;99.90
